Time;durP1;ratioP1;P1;durP2;ratioP2;P2;SDS_P1;SDS_P2;PMS_P1;PMS_P2;Temp;Humidity;BMP_temperature;BMP_pressure;BME280_temperature;BME280_humidity;BME280_pressure;Samples;Min_cycle;Max_cycle;Signal;HPM_P1;HPM_P2
2022/03/25 00:02:06;;;;;;;60.30;30.30;;;;;;;-146.64;100.00;39992.75;5007235;28;20184;-86
2022/03/25 00:04:32;;;;;;;59.45;33.08;;;;;;;-146.64;100.00;40050.06;5038674;28;20068;-86
2022/03/25 00:06:57;;;;;;;53.97;29.98;;;;;;;-146.64;100.00;40017.31;5023688;28;20109;-85
2022/03/25 00:09:23;;;;;;;60.92;32.50;;;;;;;-146.64;100.00;39994.81;5023327;28;20025;-86
2022/03/25 00:11:48;;;;;;;56.42;32.72;;;;;;;-146.64;100.00;40177.00;5020279;28;20026;-87
2022/03/25 00:14:14;;;;;;;55.97;34.72;;;;;;;-146.64;100.00;40185.19;5014099;28;20072;-87
2022/03/25 00:16:40;;;;;;;59.95;34.38;;;;;;;-146.64;100.00;40295.72;5015802;28;20053;-88
2022/03/25 00:19:06;;;;;;;70.37;36.03;;;;;;;-146.64;100.00;40348.94;5032058;28;20030;-87
2022/03/25 00:21:32;;;;;;;60.28;35.70;;;;;;;-146.64;100.00;40451.31;5023434;28;20029;-87
2022/03/25 00:23:57;;;;;;;68.68;35.78;;;;;;;-146.64;100.00;40535.25;5039358;28;20035;-87
2022/03/25 00:26:22;;;;;;;59.95;34.90;;;;;;;-146.64;100.00;40561.84;5010436;28;20026;-88
2022/03/25 00:28:48;;;;;;;66.35;37.30;;;;;;;-146.64;100.00;40742.00;5009387;28;20068;-87
2022/03/25 00:31:16;;;;;;;65.13;39.08;;;;;;;-146.64;100.00;40995.88;5033606;28;20033;-87
2022/03/25 00:33:43;;;;;;;65.03;36.67;;;;;;;-146.64;100.00;41157.66;5042910;28;20036;-87
2022/03/25 00:36:10;;;;;;;73.13;38.38;;;;;;;-146.64;100.00;41284.59;5014839;28;20376;-87
2022/03/25 00:38:36;;;;;;;71.22;39.65;;;;;;;-146.64;100.00;41546.69;5041787;28;20050;-87
2022/03/25 00:41:01;;;;;;;68.05;40.67;;;;;;;-146.64;100.00;42470.34;5024585;28;20030;-85
2022/03/25 00:43:27;;;;;;;70.18;41.63;;;;;;;-146.64;100.00;42978.34;5044822;28;20081;-86
2022/03/25 00:45:52;;;;;;;73.78;41.92;;;;;;;-146.64;100.00;43117.66;5026726;28;20116;-85
2022/03/25 00:48:19;;;;;;;77.70;41.13;;;;;;;-146.64;100.00;44101.09;5043810;28;20045;-86
2022/03/25 00:50:44;;;;;;;72.80;41.67;;;;;;;-146.64;100.00;44246.56;5025726;28;20084;-86
2022/03/25 00:53:10;;;;;;;73.60;42.47;;;;;;;-146.64;100.00;45654.59;5043579;28;20018;-87
2022/03/25 00:55:37;;;;;;;71.60;41.28;;;;;;;-146.64;100.00;46076.91;5028133;28;20029;-87
2022/03/25 00:58:03;;;;;;;80.90;43.08;;;;;;;-146.64;100.00;47282.56;5016848;28;20021;-87
2022/03/25 01:00:29;;;;;;;79.95;44.58;;;;;;;-146.64;100.00;50801.16;5044129;28;20480;-88
2022/03/25 01:02:57;;;;;;;81.15;44.15;;;;;;;-146.64;100.00;51552.44;5057722;28;20045;-87
2022/03/25 01:05:22;;;;;;;76.68;43.90;;;;;;;-146.64;100.00;55305.00;5022605;28;20068;-87
2022/03/25 01:07:48;;;;;;;83.05;46.25;;;;;;;-146.64;100.00;60305.66;5042153;28;20036;-87
2022/03/25 01:10:14;;;;;;;76.25;44.92;;;;;;;-146.64;100.00;60569.03;5022592;28;20085;-88
2022/03/25 01:12:39;;;;;;;80.93;47.08;;;;;;;-146.64;100.00;65312.66;5025882;28;20021;-87
2022/03/25 01:15:05;;;;;;;83.85;46.13;;;;;;;-146.64;100.00;67686.56;5042912;28;20472;-87
2022/03/25 01:17:31;;;;;;;80.85;46.15;;;;;;;-146.64;100.00;66895.09;5021726;28;20030;-87
2022/03/25 01:19:58;;;;;;;77.68;45.08;;;;;;;-146.64;100.00;72967.03;5042434;28;20112;-86
2022/03/25 01:22:23;;;;;;;82.03;47.55;;;;;;;-146.64;100.00;74023.97;5025230;28;20034;-87
2022/03/25 01:24:49;;;;;;;89.82;47.85;;;;;;;-146.64;100.00;75081.16;5024318;28;20045;-87
2022/03/25 01:27:15;;;;;;;87.75;50.42;;;;;;;-146.64;100.00;77460.91;5024750;28;20025;-87
2022/03/25 01:29:40;;;;;;;86.28;48.83;;;;;;;-146.64;100.00;78783.59;5025402;28;20439;-87
2022/03/25 01:32:07;;;;;;;90.85;50.08;;;;;;;-146.64;100.00;80371.41;5042652;28;20025;-87
2022/03/25 01:34:33;;;;;;;86.75;48.38;;;;;;;-146.64;100.00;81165.53;5025977;28;20083;-86
2022/03/25 01:36:59;;;;;;;87.47;50.63;;;;;;;-146.64;100.00;83548.88;5024529;28;20033;-86
2022/03/25 01:39:27;;;;;;;98.07;52.97;;;;;;;-146.64;100.00;84343.66;5025519;28;20029;-87
2022/03/25 01:41:54;;;;;;;90.82;52.10;;;;;;;-146.64;100.00;84873.56;5041571;28;20037;-87
2022/03/25 01:44:26;;;;;;;88.35;50.35;;;;;;;-146.64;100.00;85933.66;5024810;28;20037;-88
2022/03/25 01:46:53;;;;;;;92.15;50.80;;;;;;;-146.64;100.00;86463.78;5026340;28;20030;-87
2022/03/25 01:49:19;;;;;;;86.25;51.45;;;;;;;-146.64;100.00;87259.13;5005389;28;20077;-85
2022/03/25 01:51:48;;;;;;;92.90;53.25;;;;;;;-146.64;100.00;88850.28;5023263;28;20384;-88
2022/03/25 01:54:23;;;;;;;95.32;54.00;;;;;;;-146.64;100.00;88585.03;5024788;28;20022;-88
2022/03/25 01:57:00;;;;;;;96.15;51.22;;;;;;;-146.64;100.00;88585.03;5021044;28;20060;-88
2022/03/25 01:59:26;;;;;;;97.88;52.03;;;;;;;-146.64;100.00;89115.53;5057605;28;20021;-88
2022/03/25 02:01:53;;;;;;;93.57;52.70;;;;;;;-146.64;100.00;90442.06;5012263;28;20034;-87
2022/03/25 02:04:19;;;;;;;92.50;52.10;;;;;;;-146.64;100.00;90442.06;5026427;28;20038;-89
2022/03/25 02:06:45;;;;;;;92.95;49.83;;;;;;;-146.64;100.00;90972.78;5027645;28;20039;-88
2022/03/25 02:09:11;;;;;;;96.73;53.97;;;;;;;-146.64;100.00;91503.59;5041683;28;20073;-87
2022/03/25 02:11:38;;;;;;;94.82;54.08;;;;;;;-146.64;100.00;92830.91;5024611;28;20152;-88
2022/03/25 02:14:03;;;;;;;103.05;53.03;;;;;;;-146.64;100.00;92565.41;5027017;28;20022;-87
2022/03/25 02:16:38;;;;;;;100.50;53.63;;;;;;;-146.64;100.00;94689.88;5025434;28;20044;-87
2022/03/25 02:19:04;;;;;;;92.32;53.15;;;;;;;-146.64;100.00;94424.25;5024823;28;20069;-86
2022/03/25 02:21:33;;;;;;;95.85;53.70;;;;;;;-146.64;100.00;94689.88;5068199;23;20061;-79
2022/03/25 02:24:00;;;;;;;99.35;56.25;;;;;;;-146.64;100.00;94158.66;5028531;28;20030;-78
2022/03/25 02:26:27;;;;;;;103.10;57.33;;;;;;;-146.64;100.00;95486.84;5029919;28;20546;-80
2022/03/25 02:28:53;;;;;;;98.90;56.85;;;;;;;-146.64;100.00;96018.25;5029320;28;20045;-79
2022/03/25 02:31:18;;;;;;;101.75;56.10;;;;;;;-146.64;100.00;97081.25;5038233;28;20042;-80
2022/03/25 02:33:45;;;;;;;98.50;54.72;;;;;;;-146.64;100.00;97347.03;5035196;28;20044;-79
2022/03/25 02:36:11;;;;;;;103.25;54.53;;;;;;;-146.64;100.00;97347.03;5045428;28;20034;-80
2022/03/25 02:38:37;;;;;;;102.45;55.88;;;;;;;-146.64;100.00;97612.84;5029634;28;20037;-79
2022/03/25 02:41:04;;;;;;;101.50;57.37;;;;;;;-146.64;100.00;97347.03;5045487;28;20025;-79
2022/03/25 02:43:30;;;;;;;101.47;57.00;;;;;;;-146.64;100.00;97878.69;5029619;28;20033;-80
2022/03/25 02:45:56;;;;;;;93.88;54.22;;;;;;;-146.64;100.00;98676.28;5045689;28;20099;-79
2022/03/25 02:48:22;;;;;;;100.07;57.42;;;;;;;-146.64;100.00;98410.41;5044433;28;20033;-80
2022/03/25 02:50:47;;;;;;;108.88;57.50;;;;;;;-146.64;100.00;98942.19;5043399;28;20063;-79
2022/03/25 02:53:14;;;;;;;95.60;56.10;;;;;;;-146.64;100.00;99739.97;5013222;28;20079;-80
2022/03/25 02:55:40;;;;;;;104.57;57.72;;;;;;;-146.64;100.00;99474.03;5044572;28;20017;-79
2022/03/25 02:58:06;;;;;;;101.95;55.92;;;;;;;-146.64;100.00;100271.94;5012771;28;20064;-79
2022/03/25 03:00:32;;;;;;;105.28;55.38;;;;;;;-146.64;100.00;99739.97;5041374;28;20492;-79
2022/03/25 03:03:00;;;;;;;99.07;57.15;;;;;;;-146.64;100.00;99739.97;5028720;28;20056;-79
2022/03/25 03:05:28;;;;;;;97.95;56.88;;;;;;;-146.64;100.00;101602.13;5029736;28;20501;-79
2022/03/25 03:07:54;;;;;;;104.20;58.65;;;;;;;-146.64;100.00;101070.00;5043597;28;20029;-79
2022/03/25 03:10:19;;;;;;;108.68;56.75;;;;;;;-146.64;100.00;101070.00;5045218;28;20159;-80
2022/03/25 03:12:46;;;;;;;99.32;56.75;;;;;;;-146.64;100.00;102400.44;5048539;28;20033;-78
2022/03/25 03:15:15;;;;;;;98.68;57.03;;;;;;;-146.64;100.00;102666.59;5010311;28;20042;-80
2022/03/25 03:17:41;;;;;;;105.03;55.95;;;;;;;-146.64;100.00;101336.06;5043730;28;20059;-79
2022/03/25 03:20:07;;;;;;;103.18;55.65;;;;;;;-146.64;100.00;101868.22;5042331;28;20030;-79
2022/03/25 03:22:33;;;;;;;102.13;57.65;;;;;;;-146.64;100.00;101868.22;5003386;28;20049;-80
2022/03/25 03:24:59;;;;;;;105.25;57.55;;;;;;;-146.64;100.00;102134.31;5007490;28;20034;-79
2022/03/25 03:27:25;;;;;;;104.10;55.40;;;;;;;-146.64;100.00;102666.59;5007757;28;20061;-79
2022/03/25 03:29:50;;;;;;;123.97;58.60;;;;;;;-146.64;100.00;102666.59;5025399;28;20302;-79
2022/03/25 03:32:17;;;;;;;102.55;57.00;;;;;;;-146.64;100.00;103198.94;5008016;28;20057;-78
2022/03/25 03:34:42;;;;;;;104.27;57.07;;;;;;;-146.64;100.00;103198.94;5024886;28;20093;-79
2022/03/25 03:37:07;;;;;;;105.75;58.78;;;;;;;-146.64;100.00;103997.56;5016186;28;20373;-79
2022/03/25 03:39:33;;;;;;;100.70;57.85;;;;;;;-146.64;100.00;103731.34;5006492;28;20088;-79
2022/03/25 03:41:59;;;;;;;101.28;56.60;;;;;;;-146.64;100.00;103731.34;5022004;28;20483;-79
2022/03/25 03:44:25;;;;;;;105.65;59.30;;;;;;;-146.64;100.00;104263.81;5025461;28;20029;-79
2022/03/25 03:46:50;;;;;;;108.82;60.03;;;;;;;-146.64;100.00;104796.38;5023525;28;20018;-79
2022/03/25 03:49:16;;;;;;;108.03;60.90;;;;;;;-146.64;100.00;105062.66;4991154;28;20093;-78
2022/03/25 03:51:42;;;;;;;100.90;57.15;;;;;;;-146.64;100.00;105329.00;5022807;28;20025;-80
2022/03/25 03:54:07;;;;;;;105.30;59.20;;;;;;;-146.64;100.00;105595.31;5022766;28;20022;-79
2022/03/25 03:56:32;;;;;;;108.45;58.72;;;;;;;-146.64;100.00;105329.00;5022599;28;20041;-79
2022/03/25 03:58:58;;;;;;;111.72;59.13;;;;;;;-146.64;100.00;105329.00;5007280;28;20080;-79
2022/03/25 04:01:23;;;;;;;111.05;60.08;;;;;;;-146.64;100.00;105861.69;5006302;28;20088;-79
2022/03/25 04:03:49;;;;;;;104.97;58.70;;;;;;;-146.64;100.00;105329.00;5007420;28;20028;-80
2022/03/25 04:06:14;;;;;;;111.35;58.70;;;;;;;-146.64;100.00;105861.69;5008021;28;20030;-81
2022/03/25 04:08:40;;;;;;;113.40;60.38;;;;;;;-146.64;100.00;106128.03;5023958;28;20034;-81
2022/03/25 04:11:05;;;;;;;105.15;58.85;;;;;;;-146.64;100.00;105861.69;5005496;28;20030;-80
2022/03/25 04:13:30;;;;;;;109.28;59.17;;;;;;;-146.64;100.00;106660.84;5023670;28;20048;-81
2022/03/25 04:15:57;;;;;;;102.28;59.63;;;;;;;-146.64;100.00;106394.44;5040811;28;20126;-80
2022/03/25 04:18:23;;;;;;;106.20;58.45;;;;;;;-146.64;100.00;106128.03;5023924;28;20033;-81
2022/03/25 04:20:51;;;;;;;110.45;59.72;;;;;;;-146.64;100.00;106394.44;5024154;28;20073;-80
2022/03/25 04:23:17;;;;;;;108.03;57.65;;;;;;;-146.64;100.00;106394.44;5003830;28;20427;-78
2022/03/25 04:25:43;;;;;;;104.60;58.08;;;;;;;-146.64;100.00;106394.44;5022127;28;20046;-80
2022/03/25 04:28:09;;;;;;;105.43;59.35;;;;;;;-146.64;100.00;106660.84;5006989;28;20388;-79
2022/03/25 04:30:36;;;;;;;103.10;58.47;;;;;;;-146.64;100.00;107460.16;5023535;28;20022;-78
2022/03/25 04:33:02;;;;;;;120.05;61.15;;;;;;;-146.64;100.00;107993.13;5007405;28;20438;-79
2022/03/25 04:35:28;;;;;;;118.47;61.67;;;;;;;-146.64;100.00;107993.13;5023472;28;20069;-79
2022/03/25 04:37:54;;;;;;;107.75;59.35;;;;;;;-146.64;100.00;107993.13;5006050;28;20106;-79
2022/03/25 04:40:21;;;;;;;107.65;58.40;;;;;;;-146.64;100.00;107993.13;5006767;28;20052;-79
2022/03/25 04:42:47;;;;;;;;;;;;;;;-146.64;100.00;107993.13;5007545;28;20045;-79
2022/03/25 04:45:14;;;;;;;119.22;59.25;;;;;;;-146.64;100.00;107993.13;5006554;28;19913;-79
2022/03/25 04:47:39;;;;;;;115.97;59.90;;;;;;;-146.64;100.00;108259.63;5006545;28;20088;-80
2022/03/25 04:50:09;;;;;;;118.18;61.70;;;;;;;-146.64;100.00;108259.63;4989963;28;20018;-80
2022/03/25 04:52:35;;;;;;;119.28;63.15;;;;;;;-146.64;100.00;108792.72;5023306;28;20029;-80
2022/03/25 04:55:01;;;;;;;108.60;59.40;;;;;;;-146.64;100.00;108792.72;5007692;28;20465;-78
2022/03/25 04:57:26;;;;;;;116.00;61.67;;;;;;;-146.64;100.00;109059.28;5025341;28;20040;-78
2022/03/25 04:59:51;;;;;;;118.55;62.42;;;;;;;-146.64;100.00;109059.28;5024642;28;20029;-80
2022/03/25 05:02:17;;;;;;;112.88;62.45;;;;;;;-146.64;100.00;109325.84;5001091;28;20030;-80
2022/03/25 05:04:42;;;;;;;112.85;61.67;;;;;;;-146.64;100.00;110125.69;5002022;28;20030;-79
2022/03/25 05:07:13;;;;;;;116.30;62.72;;;;;;;-146.64;100.00;110659.00;5019245;28;20026;-79
2022/03/25 05:09:39;;;;;;;116.03;62.30;;;;;;;-146.64;100.00;110125.69;5022789;28;20037;-79
2022/03/25 05:12:04;;;;;;;124.18;66.15;;;;;;;-146.64;100.00;110392.34;5022696;28;20042;-79
2022/03/25 05:14:30;;;;;;;122.85;64.03;;;;;;;-146.64;100.00;110925.69;5027014;28;20026;-79
2022/03/25 05:16:55;;;;;;;119.82;63.38;;;;;;;-146.64;100.00;110925.69;5009028;28;20038;-78
2022/03/25 05:19:21;;;;;;;124.20;64.75;;;;;;;-146.64;100.00;111459.13;5010468;28;20053;-79
2022/03/25 05:21:46;;;;;;;126.82;66.15;;;;;;;-146.64;100.00;111459.13;5024591;28;20049;-79
2022/03/25 05:24:12;;;;;;;119.63;66.05;;;;;;;-146.64;100.00;111992.59;5008090;28;20233;-78
2022/03/25 05:26:38;;;;;;;118.38;65.30;;;;;;;-146.64;100.00;112259.38;5009298;28;20036;-80
2022/03/25 05:29:04;;;;;;;127.13;66.50;;;;;;;-146.64;100.00;112792.97;5026490;28;20087;-80
2022/03/25 05:31:31;;;;;;;123.10;68.67;;;;;;;-146.64;100.00;113059.81;5025981;28;20033;-79
2022/03/25 05:33:56;;;;;;;125.25;66.90;;;;;;;-146.64;100.00;113059.81;5025810;28;20091;-79
2022/03/25 05:36:21;;;;;;;119.75;65.43;;;;;;;-146.64;100.00;113059.81;5008890;28;20029;-80
2022/03/25 05:38:48;;;;;;;129.00;70.95;;;;;;;-146.64;100.00;113326.63;5025664;28;20026;-79
2022/03/25 05:41:13;;;;;;;134.98;67.80;;;;;;;-146.64;100.00;113593.50;5010463;28;20046;-79
2022/03/25 05:43:39;;;;;;;135.50;69.03;;;;;;;-146.64;100.00;113326.63;5010508;28;20144;-79
2022/03/25 05:46:05;;;;;;;124.45;67.03;;;;;;;-146.64;100.00;113326.63;5025470;28;20052;-78
2022/03/25 05:48:31;;;;;;;126.75;68.78;;;;;;;-146.64;100.00;113593.50;5027223;28;20439;-79
2022/03/25 05:50:56;;;;;;;140.90;70.22;;;;;;;-146.64;100.00;113593.50;5009700;28;20029;-79
2022/03/25 05:53:22;;;;;;;140.18;70.00;;;;;;;-146.64;100.00;113326.63;5043135;28;20096;-81
2022/03/25 05:55:47;;;;;;;130.45;72.82;;;;;;;-146.64;100.00;112792.97;5007870;28;20037;-79
2022/03/25 05:58:13;;;;;;;120.97;66.97;;;;;;;-146.64;100.00;112259.38;5004256;28;20026;-79
2022/03/25 06:00:38;;;;;;;129.48;71.95;;;;;;;-146.64;100.00;111992.59;5023419;28;20465;-79
2022/03/25 06:03:05;;;;;;;127.28;68.88;;;;;;;-146.64;100.00;111459.13;5009318;28;20705;-79
2022/03/25 06:05:31;;;;;;;126.97;70.90;;;;;;;-146.64;100.00;110659.00;5006762;28;20028;-79
2022/03/25 06:07:56;;;;;;;117.03;67.00;;;;;;;-146.64;100.00;110125.69;5023203;28;20073;-79
2022/03/25 06:10:21;;;;;;;132.68;67.22;;;;;;;-146.64;100.00;109592.44;5023746;28;20030;-79
2022/03/25 06:12:47;;;;;;;127.05;69.22;;;;;;;-146.64;100.00;108792.72;5005655;28;20036;-80
2022/03/25 06:15:12;;;;;;;129.30;70.05;;;;;;;-146.64;100.00;107993.13;5007569;28;20034;-79
2022/03/25 06:17:50;;;;;;;116.45;65.80;;;;;;;-146.64;100.00;106927.25;5007036;28;20081;-79
2022/03/25 06:20:24;;;;;;;120.53;67.90;;;;;;;-146.64;100.00;105861.69;5005630;28;20056;-79
2022/03/25 06:22:49;;;;;;;118.45;67.30;;;;;;;-146.64;100.00;104263.81;5006873;28;20388;-79
2022/03/25 06:25:15;;;;;;;126.85;69.95;;;;;;;-146.64;100.00;103198.94;5007332;28;20085;-79
2022/03/25 06:27:54;;;;;;;120.03;68.00;;;;;;;-146.64;100.00;101602.13;5024593;28;20026;-78
2022/03/25 06:30:22;;;;;;;117.35;68.18;;;;;;;-146.64;100.00;100005.94;5022268;28;20507;-79
2022/03/25 06:32:47;;;;;;;128.88;69.75;;;;;;;-146.64;100.00;98676.28;5024839;28;20026;-79
2022/03/25 06:35:14;;;;;;;121.25;67.40;;;;;;;-146.64;100.00;96283.97;5025008;28;20029;-79
2022/03/25 06:37:40;;;;;;;122.00;67.82;;;;;;;-146.64;100.00;95221.19;5026752;28;20026;-79
2022/03/25 06:40:07;;;;;;;115.90;66.25;;;;;;;-146.64;100.00;93893.06;5008127;28;20109;-79
2022/03/25 06:42:34;;;;;;;130.00;70.47;;;;;;;-146.64;100.00;92034.47;5019637;28;20027;-79
2022/03/25 06:44:59;;;;;;;115.35;66.90;;;;;;;-146.64;100.00;90442.06;5038983;28;20037;-80
2022/03/25 06:47:25;;;;;;;122.10;66.30;;;;;;;-146.64;100.00;88850.28;5010563;28;20037;-79
2022/03/25 06:49:51;;;;;;;122.57;68.07;;;;;;;-146.64;100.00;86198.72;5014691;28;20064;-80
2022/03/25 06:52:16;;;;;;;129.18;67.43;;;;;;;-146.64;100.00;82224.63;5012128;28;20038;-78
2022/03/25 06:54:42;;;;;;;121.15;70.38;;;;;;;-146.64;100.00;80106.72;5026869;28;20109;-80
2022/03/25 06:57:09;;;;;;;128.90;68.90;;;;;;;-146.64;100.00;76667.50;5022163;28;20026;-78
2022/03/25 06:59:35;;;;;;;119.50;68.47;;;;;;;-146.64;100.00;72438.66;5004516;28;20025;-80
2022/03/25 07:02:01;;;;;;;118.80;67.38;;;;;;;-146.64;100.00;69006.03;5023243;28;20030;-79
2022/03/25 07:04:26;;;;;;;120.65;69.55;;;;;;;-146.64;100.00;65048.97;5027696;28;20025;-80
2022/03/25 07:06:54;;;;;;;116.05;67.53;;;;;;;-146.64;100.00;63467.22;5008698;28;20025;-80
2022/03/25 07:09:20;;;;;;;118.10;65.13;;;;;;;-146.64;100.00;60305.66;5026387;28;20030;-80
2022/03/25 07:11:45;;;;;;;115.85;68.60;;;;;;;-146.64;100.00;59252.38;5022549;28;20030;-80
2022/03/25 07:14:11;;;;;;;116.18;68.88;;;;;;;-146.64;100.00;52574.97;5026338;28;20104;-80
2022/03/25 07:16:37;;;;;;;115.03;69.13;;;;;;;-146.64;100.00;48525.50;5009478;28;20036;-79
2022/03/25 07:19:02;;;;;;;114.32;67.45;;;;;;;-146.64;100.00;47417.91;5024888;28;20034;-80
2022/03/25 07:21:28;;;;;;;127.53;66.53;;;;;;;-146.64;100.00;44172.81;5022674;28;20176;-80
2022/03/25 07:23:54;;;;;;;115.53;69.13;;;;;;;-146.64;100.00;42605.53;4988992;28;20097;-81
2022/03/25 07:26:19;;;;;;;113.10;66.38;;;;;;;-146.64;100.00;42484.69;5028683;28;20014;-80
2022/03/25 07:28:45;;;;;;;112.43;66.57;;;;;;;-146.64;100.00;42601.44;5024240;28;20116;-80
2022/03/25 07:31:13;;;;;;;117.65;69.22;;;;;;;-146.64;100.00;42044.34;5020709;28;20038;-80
2022/03/25 07:33:38;;;;;;;112.50;67.13;;;;;;;-146.64;100.00;42099.63;5000450;28;20027;-79
2022/03/25 07:36:04;;;;;;;109.20;67.68;;;;;;;-146.64;100.00;41454.56;4983831;28;20026;-79
2022/03/25 07:38:30;;;;;;;116.80;68.30;;;;;;;-146.64;100.00;40864.84;5019656;28;20030;-78
2022/03/25 07:40:56;;;;;;;111.55;65.30;;;;;;;-146.64;100.00;40459.50;5002022;28;20386;-79
2022/03/25 07:43:21;;;;;;;110.25;67.45;;;;;;;-146.64;100.00;40234.31;4986878;28;20041;-79
2022/03/25 07:45:47;;;;;;;112.43;65.70;;;;;;;-146.64;100.00;40136.03;4999826;28;20031;-79
2022/03/25 07:48:12;;;;;;;113.40;65.75;;;;;;;-146.64;100.00;40095.09;5015714;28;20037;-79
2022/03/25 07:50:37;;;;;;;113.13;65.05;;;;;;;-146.64;100.00;40152.41;5020152;28;20431;-78
2022/03/25 07:53:03;;;;;;;117.43;67.50;;;;;;;-146.64;100.00;40164.72;5003879;28;20026;-79
2022/03/25 07:55:28;;;;;;;108.25;66.70;;;;;;;-146.64;100.00;40150.38;5003113;28;20065;-79
2022/03/25 07:57:54;;;;;;;114.82;66.65;;;;;;;-146.64;100.00;40238.41;5002547;28;20526;-79
2022/03/25 08:00:19;;;;;;;118.35;70.50;;;;;;;-146.64;100.00;40240.44;5004825;28;20026;-79
2022/03/25 08:02:47;;;;;;;119.53;68.63;;;;;;;-146.64;100.00;40203.59;5022207;28;20038;-79
2022/03/25 08:05:13;;;;;;;107.05;66.32;;;;;;;-146.64;100.00;40177.00;5021674;28;20089;-79
2022/03/25 08:07:54;;;;;;;109.57;66.38;;;;;;;-146.64;100.00;40062.34;5021915;28;20026;-80
2022/03/25 08:10:25;;;;;;;114.00;68.22;;;;;;;-146.64;100.00;40086.91;5021389;28;20113;-80
2022/03/25 08:12:51;;;;;;;109.40;65.57;;;;;;;-146.64;100.00;40033.69;5004388;28;20085;-80
2022/03/25 08:15:17;;;;;;;108.28;67.53;;;;;;;-146.64;100.00;40009.13;5005175;28;20038;-79
2022/03/25 08:17:50;;;;;;;108.00;64.85;;;;;;;-146.64;100.00;39933.41;5021418;28;20213;-79
2022/03/25 08:20:24;;;;;;;95.05;59.97;;;;;;;-146.64;100.00;39665.25;5021182;28;20029;-79
2022/03/25 08:22:50;;;;;;;107.32;62.85;;;;;;;-146.64;100.00;39575.19;5021925;28;20026;-80
2022/03/25 08:28:01;;;;;;;97.65;58.75;;;;;;;-146.64;100.00;39517.91;5022940;28;20033;-80
2022/03/25 08:30:33;;;;;;;93.95;58.28;;;;;;;-146.64;100.00;39452.41;5005947;28;20022;-80
2022/03/25 08:32:59;;;;;;;97.18;56.03;;;;;;;-146.64;100.00;39440.13;5022624;28;20026;-80
2022/03/25 08:35:25;;;;;;;90.18;56.63;;;;;;;-146.64;100.00;39415.56;4989939;28;20040;-79
2022/03/25 08:37:51;;;;;;;91.23;56.33;;;;;;;-146.64;100.00;39409.41;5019719;28;20030;-79
2022/03/25 08:40:16;;;;;;;90.65;56.35;;;;;;;-146.64;100.00;39399.19;5004448;28;20279;-79
2022/03/25 08:42:42;;;;;;;99.40;57.58;;;;;;;-146.64;100.00;39370.53;5006631;28;20029;-79
2022/03/25 08:45:07;;;;;;;87.23;55.50;;;;;;;-146.64;100.00;39350.06;4999042;28;20560;-80
2022/03/25 08:47:33;;;;;;;90.43;55.08;;;;;;;-146.64;100.00;39356.22;5007090;28;20361;-80
2022/03/25 08:49:58;;;;;;;94.32;54.10;;;;;;;-146.64;100.00;39313.22;5028365;28;20046;-80
2022/03/25 08:52:24;;;;;;;88.80;55.05;;;;;;;-146.64;100.00;39309.13;5027574;28;20152;-79
2022/03/25 08:54:49;;;;;;;87.07;55.90;;;;;;;-146.64;100.00;39307.09;5026011;28;20114;-79
2022/03/25 08:57:15;;;;;;;88.85;55.90;;;;;;;-146.64;100.00;39300.94;5008401;28;20109;-79
2022/03/25 08:59:40;;;;;;;91.63;56.38;;;;;;;-146.64;100.00;39249.78;5025977;28;20022;-80
2022/03/25 09:02:06;;;;;;;85.73;56.03;;;;;;;-146.64;100.00;39270.25;5025210;28;20033;-80
2022/03/25 09:04:31;;;;;;;94.87;56.60;;;;;;;-146.64;100.00;39235.47;5009699;28;20022;-80
2022/03/25 09:06:57;;;;;;;92.10;55.23;;;;;;;-146.64;100.00;39204.75;5026187;28;20025;-80
2022/03/25 09:09:23;;;;;;;92.53;55.33;;;;;;;-146.64;100.00;39202.72;5024026;28;20036;-80
2022/03/25 09:11:48;;;;;;;85.65;54.55;;;;;;;-146.64;100.00;39204.75;5001246;28;20037;-80
2022/03/25 09:14:14;;;;;;;83.17;52.70;;;;;;;-146.64;100.00;39163.81;5025698;28;20032;-80
2022/03/25 09:16:40;;;;;;;86.53;54.60;;;;;;;-146.64;100.00;39172.00;5019668;28;20385;-80
2022/03/25 09:19:05;;;;;;;86.07;52.97;;;;;;;-146.64;100.00;39129.03;5007950;28;20311;-80
2022/03/25 09:21:31;;;;;;;81.35;53.25;;;;;;;-146.64;100.00;39106.53;5001253;28;20298;-79
2022/03/25 09:23:56;;;;;;;80.80;52.08;;;;;;;-146.64;100.00;39118.81;5022186;28;20038;-79
2022/03/25 09:26:21;;;;;;;89.37;53.47;;;;;;;-146.64;100.00;39104.47;5008136;28;20030;-79
2022/03/25 09:28:47;;;;;;;90.63;52.50;;;;;;;-146.64;100.00;39026.72;4997589;28;20069;-80
2022/03/25 09:31:12;;;;;;;91.07;53.93;;;;;;;-146.64;100.00;39059.47;5024771;28;20041;-80
2022/03/25 09:33:37;;;;;;;74.40;50.33;;;;;;;-146.64;100.00;39063.56;5025181;28;20148;-80
2022/03/25 09:36:04;;;;;;;77.30;49.80;;;;;;;-146.64;100.00;39032.84;5022972;28;20057;-79
2022/03/25 09:38:29;;;;;;;79.95;50.05;;;;;;;-146.64;100.00;38973.50;5006243;28;20026;-80
2022/03/25 09:40:57;;;;;;;79.27;49.33;;;;;;;-146.64;100.00;38924.41;5038016;28;20099;-80
2022/03/25 09:43:22;;;;;;;78.22;48.10;;;;;;;-146.64;100.00;38899.84;5007844;28;20057;-81
2022/03/25 09:45:47;;;;;;;75.70;48.53;;;;;;;-146.64;100.00;38983.75;5022645;28;22387;-79
2022/03/25 09:48:13;;;;;;;75.33;47.67;;;;;;;-146.64;100.00;38922.34;5021197;28;20103;-80
2022/03/25 09:50:40;;;;;;;74.22;46.20;;;;;;;-146.64;100.00;38912.13;5006880;28;20123;-80
2022/03/25 09:53:07;;;;;;;75.35;45.33;;;;;;;-146.64;100.00;38869.13;5029784;28;20113;-80
2022/03/25 09:55:34;;;;;;;70.00;45.00;;;;;;;-146.64;98.90;38869.13;4996856;28;20141;-80
2022/03/25 09:58:00;;;;;;;76.65;47.30;;;;;;;-146.64;100.00;38830.25;5021061;28;20503;-80
2022/03/25 10:00:25;;;;;;;74.40;44.00;;;;;;;-146.64;98.59;38860.97;5020566;28;20069;-80
2022/03/25 10:02:50;;;;;;;75.60;47.10;;;;;;;-146.64;100.00;38817.97;5022018;28;20057;-80
2022/03/25 10:05:20;;;;;;;75.57;46.10;;;;;;;-146.64;96.71;38815.94;5018677;28;20073;-80
2022/03/25 10:07:48;;;;;;;70.35;46.05;;;;;;;-146.64;94.15;38830.25;5025272;28;20041;-80
2022/03/25 10:10:14;;;;;;;71.68;44.35;;;;;;;-146.64;89.09;38777.06;5005115;28;20038;-80
2022/03/25 10:12:42;;;;;;;68.57;42.50;;;;;;;-146.64;82.62;38748.41;5021333;28;20017;-80
2022/03/25 10:15:20;;;;;;;72.15;44.53;;;;;;;-146.64;84.29;38748.41;5018839;28;20030;-80
2022/03/25 10:18:03;;;;;;;75.90;44.70;;;;;;;-146.64;83.24;38756.59;5022824;28;20037;-80
2022/03/25 10:20:33;;;;;;;66.57;41.65;;;;;;;-146.64;82.16;38727.94;5021281;28;20030;-83
2022/03/25 10:23:01;;;;;;;71.28;44.03;;;;;;;-146.64;84.63;38752.50;5020287;28;20039;-80
2022/03/25 10:25:39;;;;;;;72.88;46.35;;;;;;;-146.64;88.05;38715.66;5022641;28;20041;-79
2022/03/25 10:28:05;;;;;;;;;;;;;;;-146.64;83.05;38723.84;5021230;28;20037;-80
2022/03/25 10:30:38;;;;;;;68.38;43.00;;;;;;;-146.64;79.99;38670.66;5003557;28;19948;-80
2022/03/25 10:33:11;;;;;;;69.78;41.70;;;;;;;-146.64;76.72;38674.75;5004755;28;20064;-80
2022/03/25 10:36:00;;;;;;;65.00;40.05;;;;;;;-146.64;74.60;38689.06;5005328;28;20030;-80
2022/03/25 10:38:27;;;;;;;68.68;41.38;;;;;;;-146.64;72.66;38627.69;5020409;28;20117;-80
2022/03/25 10:40:53;;;;;;;;;;;;;;;-146.64;65.19;38554.00;5020074;28;20474;-80
2022/03/25 10:43:19;;;;;;;75.35;44.05;;;;;;;-146.64;65.08;38584.72;5001388;28;19917;-80
2022/03/25 10:45:45;;;;;;;68.30;45.28;;;;;;;-146.64;63.20;38625.63;5020508;28;20098;-80
2022/03/25 10:48:12;;;;;;;73.82;44.55;;;;;;;-146.64;61.94;38605.16;5006794;28;20030;-80
2022/03/25 10:51:13;;;;;;;71.60;43.60;;;;;;;-146.64;62.97;38515.13;5001685;28;20076;-80